Time;durP1;ratioP1;P1;durP2;ratioP2;P2;SDS_P1;SDS_P2;PMS_P1;PMS_P2;Temp;Humidity;BMP_temperature;BMP_pressure;BME280_temperature;BME280_humidity;BME280_pressure;Samples;Min_cycle;Max_cycle;Signal;HPM_P1;HPM_P2
2021/04/03 00:00:43;;;;;;;25.98;5.45;;;5.50;86.00;;;;;;5038842;28;20036;-72
2021/04/03 00:03:12;;;;;;;29.85;5.30;;;5.50;86.00;;;;;;5020098;28;20095;-73
2021/04/03 00:05:38;;;;;;;32.85;4.88;;;5.40;86.10;;;;;;5036672;28;20021;-71
2021/04/03 00:08:05;;;;;;;24.60;4.65;;;5.40;86.40;;;;;;5036292;28;20072;-71
2021/04/03 00:10:43;;;;;;;25.77;4.15;;;5.40;86.50;;;;;;5033084;28;20037;-71
2021/04/03 00:13:10;;;;;;;20.05;3.85;;;5.40;86.50;;;;;;5040139;28;20573;-71
2021/04/03 00:15:35;;;;;;;32.05;6.43;;;5.40;86.70;;;;;;5042989;28;20029;-71
2021/04/03 00:18:01;;;;;;;22.33;3.95;;;5.40;86.80;;;;;;5040999;28;20479;-70
2021/04/03 00:20:31;;;;;;;28.98;4.25;;;5.40;86.60;;;;;;5041193;28;20048;-70
2021/04/03 00:22:57;;;;;;;29.15;4.35;;;5.40;86.80;;;;;;5039658;28;20048;-70
2021/04/03 00:25:24;;;;;;;26.10;4.78;;;5.40;86.70;;;;;;5033820;28;20037;-70
2021/04/03 00:27:49;;;;;;;27.55;3.95;;;5.40;86.90;;;;;;5042928;28;20056;-70
2021/04/03 00:30:19;;;;;;;21.58;3.95;;;5.30;86.90;;;;;;5040091;28;20057;-72
2021/04/03 00:32:51;;;;;;;36.67;6.70;;;5.30;87.10;;;;;;5041175;28;20112;-72
2021/04/03 00:35:23;;;;;;;46.38;9.55;;;5.30;87.20;;;;;;5040019;28;20371;-72
2021/04/03 00:37:50;;;;;;;15.63;4.15;;;5.30;87.20;;;;;;5041704;28;20099;-70
2021/04/03 00:40:22;;;;;;;32.85;4.60;;;5.30;87.30;;;;;;5042385;28;20032;-72
2021/04/03 00:42:48;;;;;;;30.98;4.07;;;5.30;87.30;;;;;;5037289;28;20517;-71
2021/04/03 00:45:19;;;;;;;26.52;4.05;;;5.20;87.70;;;;;;5039951;28;20067;-71
2021/04/03 00:47:45;;;;;;;26.02;4.95;;;5.20;87.70;;;;;;5021288;28;20053;-71
2021/04/03 00:50:16;;;;;;;23.92;4.70;;;5.20;87.80;;;;;;5039265;28;20064;-71
2021/04/03 00:52:42;;;;;;;24.30;4.43;;;5.20;87.90;;;;;;5039999;28;20033;-71
2021/04/03 00:55:10;;;;;;;18.30;4.25;;;5.20;88.00;;;;;;5039593;28;20024;-71
2021/04/03 00:57:36;;;;;;;29.95;5.25;;;5.20;88.00;;;;;;5036051;28;20033;-72
2021/04/03 01:00:07;;;;;;;32.15;5.15;;;5.10;88.20;;;;;;5039097;28;20078;-72
2021/04/03 01:02:32;;;;;;;24.98;4.95;;;5.10;88.10;;;;;;5039288;28;20022;-72
2021/04/03 01:05:01;;;;;;;25.88;4.57;;;5.10;88.20;;;;;;5039413;28;20386;-72
2021/04/03 01:07:26;;;;;;;27.60;6.53;;;5.10;88.40;;;;;;5022280;28;20025;-71
2021/04/03 01:09:52;;;;;;;32.50;5.63;;;5.10;88.30;;;;;;5038863;28;20449;-71
2021/04/03 01:12:43;;;;;;;26.92;5.47;;;5.10;88.50;;;;;;5041361;28;20057;-70
2021/04/03 01:15:23;;;;;;;25.20;4.82;;;5.10;88.30;;;;;;5037786;28;20033;-71
2021/04/03 01:18:03;;;;;;;34.35;4.60;;;5.10;88.20;;;;;;5040162;28;20479;-71
2021/04/03 01:20:40;;;;;;;32.05;5.22;;;5.10;88.20;;;;;;5041318;28;20030;-71
2021/04/03 01:23:32;;;;;;;34.58;5.53;;;5.10;88.50;;;;;;5037284;28;20056;-71
2021/04/03 01:26:13;;;;;;;25.98;4.80;;;5.00;88.50;;;;;;5038506;28;20199;-71
2021/04/03 01:28:59;;;;;;;24.00;4.95;;;5.00;88.70;;;;;;5036842;28;20029;-71
2021/04/03 01:31:25;;;;;;;30.48;5.22;;;5.00;88.90;;;;;;5020238;28;20708;-71
2021/04/03 01:33:55;;;;;;;25.20;4.82;;;4.90;88.80;;;;;;5036602;28;20364;-71
2021/04/03 01:36:23;;;;;;;22.80;4.00;;;4.90;88.70;;;;;;5038876;28;20074;-71
2021/04/03 01:38:58;;;;;;;20.52;4.00;;;4.90;88.70;;;;;;5039109;28;20033;-71
2021/04/03 01:41:27;;;;;;;29.08;4.80;;;4.90;88.60;;;;;;5039759;28;20395;-71
2021/04/03 01:43:54;;;;;;;29.33;4.95;;;4.90;88.70;;;;;;5038899;28;20060;-71
2021/04/03 01:46:25;;;;;;;30.10;5.00;;;4.90;88.80;;;;;;5021669;28;20090;-71
2021/04/03 01:48:53;;;;;;;26.77;5.00;;;4.90;88.80;;;;;;5040292;28;20024;-71
2021/04/03 01:51:19;;;;;;;31.40;4.47;;;4.90;88.90;;;;;;5040572;28;20106;-71
2021/04/03 01:53:46;;;;;;;27.05;3.90;;;4.90;89.00;;;;;;5040455;28;20021;-71
2021/04/03 01:56:15;;;;;;;25.35;4.35;;;4.90;89.00;;;;;;5038481;28;20041;-71
2021/04/03 01:58:42;;;;;;;33.03;4.50;;;4.80;89.00;;;;;;5038233;28;20475;-71
2021/04/03 02:01:09;;;;;;;34.83;6.10;;;4.80;89.00;;;;;;5038679;28;20029;-71
2021/04/03 02:03:36;;;;;;;29.90;4.70;;;4.80;89.10;;;;;;5040106;28;20116;-70
2021/04/03 02:06:04;;;;;;;25.50;5.05;;;4.80;89.10;;;;;;5039644;28;20506;-70
2021/04/03 02:08:30;;;;;;;27.67;4.63;;;4.80;89.60;;;;;;5020728;28;20033;-70
2021/04/03 02:11:01;;;;;;;32.67;4.55;;;4.80;89.00;;;;;;5040855;28;20577;-70
2021/04/03 02:13:29;;;;;;;30.52;4.88;;;4.80;89.10;;;;;;5035448;28;20121;-71
2021/04/03 02:15:55;;;;;;;30.70;4.78;;;4.80;89.60;;;;;;5034960;28;20163;-70
2021/04/03 02:18:22;;;;;;;25.77;4.40;;;4.80;89.10;;;;;;5021401;28;20040;-70
2021/04/03 02:20:47;;;;;;;29.67;5.57;;;4.70;89.00;;;;;;5039253;28;20395;-70
2021/04/03 02:23:13;;;;;;;24.67;5.30;;;4.70;89.00;;;;;;5038514;28;20029;-70
2021/04/03 02:25:39;;;;;;;21.15;5.55;;;4.70;89.10;;;;;;5038787;28;20028;-70
2021/04/03 02:28:05;;;;;;;24.17;4.40;;;4.70;89.10;;;;;;5036129;28;20635;-70
2021/04/03 02:30:30;;;;;;;25.92;4.53;;;4.70;89.20;;;;;;5033224;28;20022;-70
2021/04/03 02:32:57;;;;;;;24.70;4.88;;;4.70;89.00;;;;;;5019536;28;20095;-70
2021/04/03 02:35:26;;;;;;;34.65;5.78;;;4.70;88.90;;;;;;5037500;28;20033;-70
2021/04/03 02:37:57;;;;;;;23.73;4.35;;;4.70;89.00;;;;;;5019011;28;20368;-71
2021/04/03 02:40:27;;;;;;;24.52;4.50;;;4.70;88.90;;;;;;5037633;28;20029;-70
2021/04/03 02:43:12;;;;;;;26.98;5.55;;;4.70;88.90;;;;;;5037197;28;20029;-70
2021/04/03 02:45:52;;;;;;;25.90;4.70;;;4.70;88.90;;;;;;5038135;28;20037;-70
2021/04/03 02:48:21;;;;;;;21.10;4.47;;;4.60;89.00;;;;;;5035990;28;20087;-70
2021/04/03 02:50:52;;;;;;;36.97;7.15;;;4.60;89.00;;;;;;5039729;28;20028;-70
2021/04/03 02:53:27;;;;;;;16.63;4.20;;;4.60;88.80;;;;;;5035866;28;20071;-70
2021/04/03 02:55:55;;;;;;;22.30;3.97;;;4.60;88.90;;;;;;5018207;28;20036;-70
2021/04/03 02:58:23;;;;;;;27.00;4.95;;;4.60;88.90;;;;;;5038619;28;20386;-70
2021/04/03 03:00:55;;;;;;;22.73;4.60;;;4.60;88.80;;;;;;5036212;28;20264;-70
2021/04/03 03:03:25;;;;;;;20.88;4.65;;;4.50;88.80;;;;;;5036819;28;20044;-71
2021/04/03 03:05:59;;;;;;;21.25;4.65;;;4.50;89.40;;;;;;5036423;28;20632;-71
2021/04/03 03:08:27;;;;;;;24.88;5.90;;;4.50;88.90;;;;;;5037400;28;20033;-72
2021/04/03 03:10:54;;;;;;;21.15;4.50;;;4.50;88.80;;;;;;5036417;28;20479;-71
2021/04/03 03:13:21;;;;;;;22.77;4.68;;;4.50;89.00;;;;;;5037149;28;20025;-71
2021/04/03 03:15:47;;;;;;;20.67;4.45;;;4.50;88.90;;;;;;5036006;28;20041;-71
2021/04/03 03:18:15;;;;;;;24.83;4.88;;;4.40;88.90;;;;;;5020666;28;20188;-71
2021/04/03 03:20:42;;;;;;;18.73;4.03;;;4.40;88.80;;;;;;5019453;28;20527;-71
2021/04/03 03:23:11;;;;;;;17.80;3.90;;;4.40;88.80;;;;;;5037869;28;20037;-71
2021/04/03 03:25:36;;;;;;;19.13;4.05;;;4.40;88.90;;;;;;5035144;28;20124;-71
2021/04/03 03:28:03;;;;;;;21.38;4.03;;;4.40;88.70;;;;;;5038366;28;20840;-71
2021/04/03 03:30:30;;;;;;;23.00;4.13;;;4.40;88.60;;;;;;5037170;28;20025;-71
2021/04/03 03:32:58;;;;;;;23.20;3.75;;;4.40;88.70;;;;;;5037822;28;20059;-71
2021/04/03 03:35:24;;;;;;;17.17;4.15;;;4.40;88.70;;;;;;5034283;28;20106;-71
2021/04/03 03:37:51;;;;;;;17.67;4.18;;;4.40;88.70;;;;;;5036745;28;20025;-71
2021/04/03 03:40:20;;;;;;;23.45;4.63;;;4.40;88.60;;;;;;5033175;28;20067;-71
2021/04/03 03:42:49;;;;;;;17.65;4.47;;;4.40;88.40;;;;;;5036311;28;20029;-71
2021/04/03 03:45:14;;;;;;;22.63;5.18;;;4.30;88.40;;;;;;5036313;28;20037;-71
2021/04/03 03:47:40;;;;;;;29.42;5.50;;;4.30;88.30;;;;;;5038057;28;20098;-69
2021/04/03 03:50:08;;;;;;;18.52;4.05;;;4.30;88.50;;;;;;5040354;28;20037;-71
2021/04/03 03:52:34;;;;;;;23.33;4.78;;;4.30;88.50;;;;;;5040528;28;20021;-71
2021/04/03 03:55:01;;;;;;;23.08;4.53;;;4.30;88.60;;;;;;5041483;28;20030;-71
2021/04/03 03:57:26;;;;;;;21.10;5.10;;;4.20;88.50;;;;;;5039095;28;20392;-71
2021/04/03 03:59:52;;;;;;;16.70;4.10;;;4.20;88.40;;;;;;5041161;28;20025;-71
2021/04/03 04:02:18;;;;;;;22.02;4.45;;;4.20;88.30;;;;;;5039978;28;20032;-71
2021/04/03 04:04:44;;;;;;;22.08;4.72;;;4.20;88.50;;;;;;5038673;28;20819;-71
2021/04/03 04:07:09;;;;;;;16.23;3.83;;;4.20;88.70;;;;;;5041046;28;20043;-71
2021/04/03 04:09:35;;;;;;;16.60;4.10;;;4.10;88.70;;;;;;5040273;28;20057;-71
2021/04/03 04:12:06;;;;;;;18.58;4.38;;;4.10;88.60;;;;;;5036521;28;20032;-71
2021/04/03 04:14:33;;;;;;;21.83;4.43;;;4.10;88.60;;;;;;5041609;28;20448;-71
2021/04/03 04:16:59;;;;;;;18.98;4.72;;;4.10;88.40;;;;;;5041763;28;20033;-71
2021/04/03 04:19:25;;;;;;;23.67;4.32;;;4.10;88.50;;;;;;5040320;28;20404;-72
2021/04/03 04:21:52;;;;;;;16.45;4.45;;;4.10;88.40;;;;;;5040857;28;20031;-71
2021/04/03 04:24:18;;;;;;;18.90;4.20;;;4.10;88.40;;;;;;5040783;28;20045;-71
2021/04/03 04:26:44;;;;;;;20.40;4.75;;;4.10;88.30;;;;;;5040254;28;20060;-71
2021/04/03 04:29:10;;;;;;;20.88;3.70;;;4.10;88.20;;;;;;5041638;28;20049;-71
2021/04/03 04:31:36;;;;;;;15.50;4.53;;;4.10;88.20;;;;;;5019424;28;20527;-71
2021/04/03 04:34:01;;;;;;;15.27;4.00;;;4.10;88.10;;;;;;5039128;28;20103;-71
2021/04/03 04:36:27;;;;;;;19.98;4.82;;;4.10;87.90;;;;;;5040417;28;20553;-71
2021/04/03 04:38:53;;;;;;;22.02;4.45;;;4.10;88.00;;;;;;5039538;28;20152;-71
2021/04/03 04:41:19;;;;;;;19.98;4.50;;;4.10;87.90;;;;;;5038679;28;20079;-71
2021/04/03 04:43:45;;;;;;;21.33;4.43;;;4.00;87.90;;;;;;5040335;28;20017;-71
2021/04/03 04:46:10;;;;;;;19.88;4.85;;;4.10;88.10;;;;;;5038730;28;20461;-71
2021/04/03 04:48:36;;;;;;;19.58;4.45;;;4.00;87.80;;;;;;5039071;28;20033;-71
2021/04/03 04:51:02;;;;;;;19.63;3.92;;;4.00;87.90;;;;;;5023667;28;20021;-71
2021/04/03 04:53:28;;;;;;;15.90;4.18;;;4.00;88.10;;;;;;5042028;28;20029;-71
2021/04/03 04:55:53;;;;;;;25.08;5.20;;;4.00;88.00;;;;;;5039285;28;20026;-71
2021/04/03 04:58:19;;;;;;;12.32;3.72;;;4.00;88.00;;;;;;5035832;28;20079;-70
2021/04/03 05:00:45;;;;;;;19.48;4.03;;;4.00;87.60;;;;;;5038683;28;20037;-72
2021/04/03 05:03:10;;;;;;;18.83;4.55;;;4.00;87.60;;;;;;5039444;28;20044;-72
2021/04/03 05:05:36;;;;;;;11.88;3.67;;;4.00;87.70;;;;;;5037996;28;20037;-72
2021/04/03 05:08:02;;;;;;;15.40;4.38;;;4.00;87.70;;;;;;5040362;28;20545;-72
2021/04/03 05:10:27;;;;;;;16.95;4.50;;;4.00;87.70;;;;;;5041760;28;20522;-72
2021/04/03 05:12:53;;;;;;;12.93;4.07;;;4.00;87.70;;;;;;5042729;28;20406;-71
2021/04/03 05:15:19;;;;;;;14.30;4.20;;;4.00;87.70;;;;;;5040013;28;20044;-71
2021/04/03 05:17:44;;;;;;;16.77;4.80;;;4.00;87.60;;;;;;5049898;22;20136;-65
2021/04/03 05:20:11;;;;;;;14.70;3.38;;;4.00;87.70;;;;;;5029251;28;20030;-65
2021/04/03 05:22:42;;;;;;;20.08;3.90;;;4.00;87.60;;;;;;5030908;28;20079;-65
2021/04/03 05:25:09;;;;;;;16.92;4.72;;;4.00;87.80;;;;;;5032184;28;20029;-66
2021/04/03 05:27:34;;;;;;;16.38;4.20;;;4.10;88.00;;;;;;5029977;28;20117;-65
2021/04/03 05:30:01;;;;;;;16.75;4.22;;;4.10;87.90;;;;;;5029421;28;20459;-65
2021/04/03 05:32:26;;;;;;;16.05;4.72;;;4.10;87.60;;;;;;5032732;28;20022;-66
2021/04/03 05:34:52;;;;;;;17.10;4.70;;;4.10;87.50;;;;;;5030973;28;20025;-66
2021/04/03 05:37:18;;;;;;;13.68;3.88;;;4.10;87.50;;;;;;5026465;28;20123;-67
2021/04/03 05:39:44;;;;;;;14.52;4.15;;;4.10;87.50;;;;;;5026770;28;20037;-67
2021/04/03 05:42:15;;;;;;;13.00;3.55;;;4.10;87.50;;;;;;5027365;28;20536;-65
2021/04/03 05:44:42;;;;;;;23.02;4.32;;;4.10;87.50;;;;;;5028556;28;20084;-66
2021/04/03 05:47:09;;;;;;;13.13;4.45;;;4.20;87.40;;;;;;5030760;28;20040;-66
2021/04/03 05:49:35;;;;;;;12.50;3.95;;;4.20;87.40;;;;;;5027282;28;20104;-68
2021/04/03 05:52:03;;;;;;;13.05;3.75;;;4.20;87.20;;;;;;5031344;28;20026;-68
2021/04/03 05:54:30;;;;;;;19.35;4.13;;;4.20;87.30;;;;;;5030650;28;20482;-67
2021/04/03 05:56:56;;;;;;;18.55;4.63;;;4.30;87.30;;;;;;5030683;28;20116;-66
2021/04/03 05:59:22;;;;;;;10.80;3.55;;;4.20;87.10;;;;;;5029309;28;20577;-65
2021/04/03 06:01:48;;;;;;;16.20;3.83;;;4.30;87.10;;;;;;5029000;28;20112;-65
2021/04/03 06:04:17;;;;;;;12.75;3.78;;;4.30;87.00;;;;;;5012485;28;20065;-65
2021/04/03 06:06:43;;;;;;;12.88;3.72;;;4.30;87.00;;;;;;5028351;28;20044;-65
2021/04/03 06:09:09;;;;;;;11.50;3.40;;;4.40;86.90;;;;;;5029764;28;20025;-67
2021/04/03 06:11:48;;;;;;;15.60;4.10;;;4.40;86.90;;;;;;5031727;28;20561;-66
2021/04/03 06:14:16;;;;;;;13.43;3.83;;;4.40;86.80;;;;;;5031166;28;20048;-66
2021/04/03 06:16:49;;;;;;;9.35;3.33;;;4.50;86.60;;;;;;5010945;28;20112;-66
2021/04/03 06:19:21;;;;;;;13.40;3.83;;;4.50;86.60;;;;;;5026288;28;20037;-65
2021/04/03 06:21:58;;;;;;;13.90;3.85;;;4.50;86.40;;;;;;5030597;28;20079;-65
2021/04/03 06:24:26;;;;;;;10.25;3.40;;;4.60;86.50;;;;;;5030457;28;20095;-66
2021/04/03 06:27:08;;;;;;;15.10;3.67;;;4.60;86.30;;;;;;5029983;28;20371;-65
2021/04/03 06:29:46;;;;;;;12.43;3.55;;;4.70;86.10;;;;;;5029751;28;20120;-65
2021/04/03 06:32:31;;;;;;;11.02;3.30;;;4.70;85.90;;;;;;5029929;28;20034;-65
2021/04/03 06:34:57;;;;;;;13.20;4.15;;;4.80;85.60;;;;;;5026269;28;20033;-65
2021/04/03 06:37:34;;;;;;;8.55;3.65;;;4.80;85.50;;;;;;5028999;28;20041;-65
2021/04/03 06:40:06;;;;;;;10.20;3.45;;;4.80;85.30;;;;;;5026553;28;20087;-65
2021/04/03 06:42:40;;;;;;;8.65;3.63;;;4.80;85.20;;;;;;5031054;28;20109;-67
2021/04/03 06:45:28;;;;;;;10.48;3.85;;;4.80;85.30;;;;;;5029130;28;20037;-66
2021/04/03 06:48:08;;;;;;;10.45;3.08;;;4.80;85.20;;;;;;5029060;28;20335;-66
2021/04/03 06:50:43;;;;;;;10.93;3.55;;;4.90;85.20;;;;;;5027811;28;20486;-66
2021/04/03 06:53:13;;;;;;;9.93;3.90;;;5.00;85.30;;;;;;5028383;28;20497;-66
2021/04/03 06:55:40;;;;;;;15.88;3.78;;;5.00;84.50;;;;;;5029040;28;20484;-65
2021/04/03 06:58:11;;;;;;;14.40;3.63;;;5.10;84.60;;;;;;5029524;28;20034;-65
2021/04/03 07:00:38;;;;;;;9.95;3.28;;;5.10;84.60;;;;;;5026177;28;20060;-68
2021/04/03 07:03:25;;;;;;;10.85;3.55;;;5.10;84.50;;;;;;5026146;28;20033;-66
2021/04/03 07:05:51;;;;;;;10.32;3.58;;;5.10;84.10;;;;;;5009810;28;20040;-67
2021/04/03 07:08:18;;;;;;;11.85;3.55;;;5.20;83.60;;;;;;5028496;28;20022;-65
2021/04/03 07:10:46;;;;;;;10.02;3.60;;;5.30;83.80;;;;;;5028854;28;20025;-67
2021/04/03 07:13:12;;;;;;;8.57;3.10;;;5.30;83.00;;;;;;5026382;28;20394;-65
2021/04/03 07:15:37;;;;;;;8.80;2.92;;;5.40;82.30;;;;;;5028703;28;20061;-67
2021/04/03 07:18:08;;;;;;;9.75;3.05;;;5.40;82.50;;;;;;5030197;28;20512;-66
2021/04/03 07:20:37;;;;;;;9.27;3.00;;;5.50;82.30;;;;;;5027933;28;20116;-68
2021/04/03 07:23:06;;;;;;;10.32;3.22;;;5.50;81.90;;;;;;5028850;28;20375;-65
2021/04/03 07:25:35;;;;;;;10.25;3.42;;;5.50;82.10;;;;;;5026905;28;20449;-67
2021/04/03 07:28:01;;;;;;;9.40;3.33;;;5.50;81.40;;;;;;5025955;28;20128;-66
2021/04/03 07:30:39;;;;;;;10.48;3.15;;;5.60;81.30;;;;;;5027057;28;20052;-66
2021/04/03 07:33:19;;;;;;;7.65;2.70;;;5.60;80.80;;;;;;5010078;28;20116;-66
2021/04/03 07:35:47;;;;;;;7.63;2.63;;;5.60;79.70;;;;;;5008811;28;20068;-67
2021/04/03 07:38:26;;;;;;;5.10;2.63;;;5.70;79.20;;;;;;5027860;28;20029;-66
2021/04/03 07:40:57;;;;;;;12.68;3.15;;;5.80;78.80;;;;;;5028592;28;20056;-65
2021/04/03 07:43:41;;;;;;;10.57;2.83;;;6.00;80.10;;;;;;5028770;28;20509;-65
2021/04/03 07:46:12;;;;;;;6.10;2.63;;;6.10;77.40;;;;;;5026497;28;20515;-65
2021/04/03 07:48:40;;;;;;;6.45;2.60;;;6.20;76.60;;;;;;5027922;28;20514;-66
2021/04/03 07:51:07;;;;;;;9.48;2.58;;;6.30;75.90;;;;;;5026540;28;20393;-67
2021/04/03 07:53:35;;;;;;;6.10;2.20;;;6.20;75.40;;;;;;5026849;28;20022;-67
2021/04/03 07:56:02;;;;;;;8.48;2.53;;;6.30;74.80;;;;;;5025936;28;20522;-67
2021/04/03 07:58:35;;;;;;;8.60;3.00;;;6.30;75.40;;;;;;5027009;28;20037;-67
2021/04/03 08:01:03;;;;;;;11.23;2.88;;;6.30;75.40;;;;;;5027244;28;20371;-66
2021/04/03 08:03:31;;;;;;;6.15;2.60;;;6.30;74.90;;;;;;5025017;28;20094;-73
2021/04/03 08:06:03;;;;;;;7.88;2.55;;;6.30;74.20;;;;;;5023975;28;20033;-66
2021/04/03 08:08:30;;;;;;;11.60;2.67;;;6.40;74.10;;;;;;5024572;28;20029;-66
2021/04/03 08:11:14;;;;;;;4.63;2.33;;;6.50;73.50;;;;;;5027912;28;20033;-68
2021/04/03 08:13:45;;;;;;;5.68;2.35;;;6.50;73.00;;;;;;5025862;28;20037;-68
2021/04/03 08:16:13;;;;;;;;;;;6.60;72.50;;;;;;5026790;28;21271;-66
2021/04/03 08:18:45;;;;;;;5.35;2.00;;;6.60;70.00;;;;;;5026354;28;19920;-67
2021/04/03 08:21:11;;;;;;;6.82;2.30;;;6.60;69.30;;;;;;5024081;28;20033;-65
2021/04/03 08:23:43;;;;;;;5.85;1.40;;;6.80;66.30;;;;;;5026327;28;20067;-68
2021/04/03 08:26:09;;;;;;;4.70;1.35;;;6.70;66.70;;;;;;5025654;28;20034;-65
2021/04/03 08:28:36;;;;;;;4.95;1.60;;;6.90;65.90;;;;;;5031502;28;20025;-65
2021/04/03 08:31:15;;;;;;;2.38;1.00;;;6.90;63.40;;;;;;5009988;28;20029;-65
2021/04/03 08:33:42;;;;;;;3.80;1.30;;;7.00;63.60;;;;;;5029350;28;20040;-67
2021/04/03 08:36:12;;;;;;;4.75;1.10;;;7.00;64.00;;;;;;5030703;28;20129;-67
2021/04/03 08:38:40;;;;;;;7.75;1.10;;;7.10;61.00;;;;;;5026873;28;20032;-68
2021/04/03 08:41:06;;;;;;;5.43;1.00;;;7.40;58.60;;;;;;5011433;28;20090;-67
2021/04/03 08:43:32;;;;;;;4.35;1.40;;;7.30;58.80;;;;;;5028070;28;20029;-68
2021/04/03 08:46:11;;;;;;;2.35;0.90;;;7.40;58.10;;;;;;5029242;28;20033;-68
2021/04/03 08:48:39;;;;;;;2.45;0.85;;;7.40;56.20;;;;;;5030529;28;20037;-68
2021/04/03 08:51:07;;;;;;;3.17;1.00;;;7.50;53.80;;;;;;5030540;28;20159;-68
2021/04/03 08:53:38;;;;;;;3.53;0.95;;;7.60;54.00;;;;;;5028813;28;20513;-66
2021/04/03 08:56:04;;;;;;;1.80;0.90;;;7.60;54.00;;;;;;5029541;28;20474;-68
2021/04/03 08:58:30;;;;;;;1.55;0.60;;;7.70;52.80;;;;;;5029255;28;20029;-66
2021/04/03 09:00:56;;;;;;;2.45;1.23;;;7.70;53.80;;;;;;5030308;28;20451;-67
2021/04/03 09:03:22;;;;;;;2.60;1.45;;;7.80;52.40;;;;;;5030679;28;20057;-67
2021/04/03 09:05:51;;;;;;;2.80;0.88;;;7.90;51.90;;;;;;5029925;28;20095;-65
2021/04/03 09:08:24;;;;;;;4.50;0.90;;;7.90;51.50;;;;;;5028657;28;20033;-65
2021/04/03 09:10:58;;;;;;;3.25;0.85;;;7.90;50.20;;;;;;5029712;28;20024;-66
2021/04/03 09:13:34;;;;;;;1.45;0.70;;;8.00;50.80;;;;;;5024497;28;20504;-66
2021/04/03 09:16:15;;;;;;;2.65;1.10;;;8.10;50.50;;;;;;5022373;28;20037;-67
2021/04/03 09:18:42;;;;;;;3.88;1.20;;;8.00;51.60;;;;;;5026429;28;20040;-68
2021/04/03 09:21:22;;;;;;;4.00;1.27;;;8.10;51.50;;;;;;5030441;28;20049;-66
2021/04/03 09:23:52;;;;;;;1.80;0.80;;;8.10;52.20;;;;;;5027772;28;20391;-66
2021/04/03 09:26:34;;;;;;;2.13;0.80;;;8.10;52.20;;;;;;5010435;28;20069;-68
2021/04/03 09:29:08;;;;;;;2.38;0.80;;;8.30;49.60;;;;;;5029938;28;20032;-66
2021/04/03 09:31:39;;;;;;;3.05;1.00;;;8.30;49.60;;;;;;5029175;28;20049;-67
2021/04/03 09:34:04;;;;;;;1.30;0.80;;;8.30;50.10;;;;;;5028318;28;20506;-67
2021/04/03 09:36:42;;;;;;;3.28;0.90;;;8.30;50.80;;;;;;5032105;28;20276;-68
2021/04/03 09:39:15;;;;;;;2.75;1.00;;;8.30;50.50;;;;;;5027769;28;20073;-67
2021/04/03 09:41:53;;;;;;;2.65;1.10;;;8.40;49.60;;;;;;5028534;28;20029;-68
2021/04/03 09:44:19;;;;;;;1.20;0.68;;;8.50;51.10;;;;;;5009205;28;20081;-67
2021/04/03 09:46:45;;;;;;;2.05;0.70;;;8.60;49.80;;;;;;5024856;28;20102;-68
2021/04/03 09:49:11;;;;;;;3.15;1.02;;;8.60;50.40;;;;;;5026316;28;20400;-68
2021/04/03 09:51:38;;;;;;;1.45;0.70;;;8.60;50.70;;;;;;5027238;28;20041;-67
2021/04/03 09:54:07;;;;;;;2.88;0.90;;;8.70;49.60;;;;;;5026638;28;20026;-67
2021/04/03 09:56:33;;;;;;;2.42;1.02;;;8.90;48.50;;;;;;5027383;28;20045;-66
2021/04/03 09:58:59;;;;;;;3.15;1.17;;;8.90;48.90;;;;;;5030148;28;20033;-68
2021/04/03 10:01:28;;;;;;;2.25;0.82;;;8.80;49.00;;;;;;5030247;28;20495;-68
2021/04/03 10:03:56;;;;;;;2.42;1.17;;;8.90;50.30;;;;;;5011881;28;20033;-72
2021/04/03 10:06:22;;;;;;;5.35;2.13;;;8.90;49.00;;;;;;5029542;28;20033;-68
2021/04/03 10:08:49;;;;;;;5.68;2.28;;;9.10;48.50;;;;;;5028504;28;20079;-66
2021/04/03 10:11:15;;;;;;;5.63;2.00;;;9.10;49.80;;;;;;5032232;28;20029;-68
2021/04/03 10:13:41;;;;;;;7.82;2.22;;;9.10;50.20;;;;;;5030334;28;20045;-68
2021/04/03 10:16:06;;;;;;;6.13;2.15;;;9.20;50.20;;;;;;5029603;28;20034;-67
2021/04/03 10:18:32;;;;;;;5.32;1.63;;;9.30;49.80;;;;;;5031243;28;20530;-67
2021/04/03 10:20:58;;;;;;;3.58;1.50;;;9.30;49.90;;;;;;5030237;28;20099;-68
2021/04/03 10:23:24;;;;;;;2.55;1.30;;;9.40;49.70;;;;;;5030155;28;20025;-67
2021/04/03 10:25:49;;;;;;;4.32;1.45;;;9.60;47.20;;;;;;5030459;28;20043;-67
2021/04/03 10:28:15;;;;;;;3.47;1.40;;;9.70;47.80;;;;;;5030056;28;20459;-67
2021/04/03 10:30:41;;;;;;;3.80;1.48;;;9.60;47.70;;;;;;5030412;28;20467;-67
2021/04/03 10:33:07;;;;;;;4.00;1.30;;;9.70;47.60;;;;;;5030773;28;20017;-67
2021/04/03 10:35:32;;;;;;;1.77;1.02;;;9.60;47.90;;;;;;5029072;28;20033;-65
2021/04/03 10:37:59;;;;;;;4.20;1.63;;;9.70;47.70;;;;;;5028679;28;20057;-67
2021/04/03 10:40:25;;;;;;;2.35;1.35;;;9.70;47.30;;;;;;5027462;28;20025;-68
2021/04/03 10:42:50;;;;;;;3.92;1.30;;;9.80;47.10;;;;;;5028869;28;20421;-68
2021/04/03 10:45:16;;;;;;;4.97;1.70;;;9.80;48.30;;;;;;5029995;28;20048;-69
2021/04/03 10:47:42;;;;;;;2.58;1.48;;;9.90;47.60;;;;;;5027363;28;20120;-69
2021/04/03 10:50:08;;;;;;;5.38;1.60;;;9.90;48.00;;;;;;5027079;28;20076;-67
2021/04/03 10:52:33;;;;;;;4.35;1.40;;;9.90;47.90;;;;;;5012702;28;20053;-67
2021/04/03 10:54:59;;;;;;;4.18;1.38;;;10.00;48.80;;;;;;5030715;28;20029;-68
2021/04/03 10:57:25;;;;;;;3.65;1.40;;;10.10;48.20;;;;;;5029042;28;20060;-67
2021/04/03 10:59:53;;;;;;;5.00;2.00;;;10.10;48.90;;;;;;5026663;28;20045;-68
2021/04/03 11:02:19;;;;;;;5.93;1.55;;;10.20;48.40;;;;;;5028851;28;20029;-68
2021/04/03 11:04:45;;;;;;;2.75;1.33;;;10.20;47.90;;;;;;5028953;28;20037;-68
2021/04/03 11:07:10;;;;;;;2.58;1.15;;;10.40;47.70;;;;;;5028665;28;20056;-67
2021/04/03 11:09:36;;;;;;;3.30;1.20;;;10.50;47.40;;;;;;5025612;28;20026;-68
2021/04/03 11:12:02;;;;;;;3.80;1.20;;;10.90;45.60;;;;;;5028423;28;20483;-67
2021/04/03 11:14:28;;;;;;;3.95;1.25;;;11.10;45.20;;;;;;5027362;28;20021;-66
2021/04/03 11:16:54;;;;;;;3.65;1.50;;;11.80;44.90;;;;;;5027730;28;20052;-66
2021/04/03 11:19:19;;;;;;;3.45;1.35;;;13.00;43.30;;;;;;5028764;28;20506;-66
2021/04/03 11:21:47;;;;;;;2.83;1.30;;;13.60;39.80;;;;;;5028854;28;20114;-65
2021/04/03 11:24:13;;;;;;;4.57;2.17;;;14.30;38.40;;;;;;5026937;28;20040;-66
2021/04/03 11:26:39;;;;;;;3.60;1.38;;;14.50;38.00;;;;;;5029100;28;20033;-65
2021/04/03 11:29:04;;;;;;;3.05;1.20;;;14.50;39.30;;;;;;5029189;28;20036;-65
2021/04/03 11:31:30;;;;;;;4.32;1.50;;;14.70;38.60;;;;;;5028764;28;20026;-65
2021/04/03 11:33:57;;;;;;;3.30;1.20;;;15.60;36.60;;;;;;5027317;28;20033;-66
2021/04/03 11:36:23;;;;;;;3.47;1.70;;;16.00;34.90;;;;;;5029007;28;20034;-65
2021/04/03 11:38:48;;;;;;;2.80;1.60;;;16.00;35.80;;;;;;5028229;28;20052;-66
2021/04/03 11:41:14;;;;;;;4.65;1.75;;;16.20;34.40;;;;;;5028908;28;20083;-66
2021/04/03 11:43:40;;;;;;;1.63;1.25;;;16.20;34.60;;;;;;5028176;28;20044;-66
2021/04/03 11:46:06;;;;;;;3.25;1.48;;;16.20;34.30;;;;;;5027355;28;20045;-66
2021/04/03 11:48:31;;;;;;;5.20;1.50;;;16.10;33.90;;;;;;5027840;28;20038;-66
2021/04/03 11:50:57;;;;;;;4.85;1.60;;;15.70;34.20;;;;;;5028817;28;20030;-66
2021/04/03 11:53:23;;;;;;;4.05;1.95;;;15.20;34.90;;;;;;5029227;28;20120;-66
2021/04/03 11:55:48;;;;;;;5.18;2.60;;;15.10;36.90;;;;;;5029445;28;20618;-65
2021/04/03 11:58:14;;;;;;;3.88;1.67;;;14.80;37.50;;;;;;5029109;28;20529;-66
2021/04/03 12:00:40;;;;;;;5.90;2.70;;;14.60;38.20;;;;;;5024873;28;20045;-65
2021/04/03 12:03:05;;;;;;;3.67;2.13;;;14.50;37.90;;;;;;5028934;28;20037;-66
2021/04/03 12:05:31;;;;;;;4.47;2.47;;;14.30;37.80;;;;;;5028606;28;20098;-67
2021/04/03 12:07:57;;;;;;;4.13;2.33;;;14.00;39.00;;;;;;5028762;28;20033;-65
2021/04/03 12:10:23;;;;;;;3.85;1.67;;;13.80;39.90;;;;;;5031569;28;20060;-67
2021/04/03 12:12:49;;;;;;;3.92;1.60;;;13.80;40.30;;;;;;5032376;28;20498;-65
2021/04/03 12:15:15;;;;;;;3.85;1.73;;;14.10;40.00;;;;;;5031277;28;20021;-67
2021/04/03 12:17:41;;;;;;;5.88;1.75;;;14.10;40.70;;;;;;5031136;28;20435;-67
2021/04/03 12:20:13;;;;;;;3.80;1.88;;;14.40;39.80;;;;;;5032298;28;20486;-67
2021/04/03 12:22:39;;;;;;;3.83;1.90;;;14.30;38.80;;;;;;5032694;28;20155;-67
2021/04/03 12:25:06;;;;;;;4.60;1.60;;;14.20;39.90;;;;;;5030548;28;20104;-66
2021/04/03 12:27:31;;;;;;;4.63;1.65;;;14.20;40.70;;;;;;5033265;28;20521;-67
2021/04/03 12:29:57;;;;;;;3.65;1.77;;;14.40;40.80;;;;;;5033809;28;20033;-66
2021/04/03 12:32:23;;;;;;;3.42;1.70;;;14.70;39.40;;;;;;5033682;28;20108;-71
2021/04/03 12:34:48;;;;;;;4.47;1.70;;;15.00;38.80;;;;;;5031238;28;20056;-66
2021/04/03 12:37:17;;;;;;;6.57;2.35;;;15.10;36.80;;;;;;5032619;28;20029;-66
2021/04/03 12:39:43;;;;;;;4.28;2.05;;;14.90;37.10;;;;;;5034135;28;20095;-67
2021/04/03 12:42:09;;;;;;;14.82;7.68;;;14.70;37.70;;;;;;5032973;28;20025;-66
2021/04/03 12:44:35;;;;;;;16.90;10.38;;;14.40;37.80;;;;;;5033075;28;20041;-65
2021/04/03 12:47:01;;;;;;;8.10;4.38;;;14.20;38.50;;;;;;5015291;28;20507;-66
2021/04/03 12:49:27;;;;;;;4.65;2.28;;;14.20;39.20;;;;;;5031910;28;20037;-66
2021/04/03 12:51:54;;;;;;;7.43;2.10;;;14.20;39.60;;;;;;5031125;28;20022;-67
2021/04/03 12:54:21;;;;;;;3.17;1.95;;;14.00;40.00;;;;;;5032884;28;20414;-66
2021/04/03 12:56:47;;;;;;;4.70;1.67;;;13.80;39.30;;;;;;5032161;28;20083;-65